sensor_id;sensor_type;location;lat;lon;timestamp;temperature;humidity
10889;DHT22;5497;51.388;6.780;2023-02-28T00:00:33;-0.60;99.90
10889;DHT22;5497;51.388;6.780;2023-02-28T00:03:03;-0.60;99.90
10889;DHT22;5497;51.388;6.780;2023-02-28T00:08:12;-0.70;99.90
10889;DHT22;5497;51.388;6.780;2023-02-28T00:10:38;-0.70;99.90
10889;DHT22;5497;51.388;6.780;2023-02-28T00:13:06;-0.70;99.90
10889;DHT22;5497;51.388;6.780;2023-02-28T00:15:33;-0.80;99.90
10889;DHT22;5497;51.388;6.780;2023-02-28T00:18:02;-0.80;99.90
10889;DHT22;5497;51.388;6.780;2023-02-28T00:22:59;-0.80;99.90
10889;DHT22;5497;51.388;6.780;2023-02-28T00:25:26;-0.80;99.90
10889;DHT22;5497;51.388;6.780;2023-02-28T00:27:53;-0.80;99.90
10889;DHT22;5497;51.388;6.780;2023-02-28T00:30:21;-0.80;99.90
10889;DHT22;5497;51.388;6.780;2023-02-28T00:35:18;-0.80;99.90
10889;DHT22;5497;51.388;6.780;2023-02-28T00:37:45;-0.80;99.90
10889;DHT22;5497;51.388;6.780;2023-02-28T00:40:12;-0.80;99.90
10889;DHT22;5497;51.388;6.780;2023-02-28T00:42:39;-0.90;99.90
10889;DHT22;5497;51.388;6.780;2023-02-28T00:45:07;-0.90;99.90
10889;DHT22;5497;51.388;6.780;2023-02-28T00:47:37;-0.90;99.90
10889;DHT22;5497;51.388;6.780;2023-02-28T00:50:05;-1.00;99.90
10889;DHT22;5497;51.388;6.780;2023-02-28T00:52:33;-1.00;99.90
10889;DHT22;5497;51.388;6.780;2023-02-28T00:55:00;-1.60;99.90
10889;DHT22;5497;51.388;6.780;2023-02-28T00:57:27;-1.00;99.90
10889;DHT22;5497;51.388;6.780;2023-02-28T00:59:54;-0.90;99.90
10889;DHT22;5497;51.388;6.780;2023-02-28T01:02:22;-0.90;99.90
10889;DHT22;5497;51.388;6.780;2023-02-28T01:04:52;-1.00;99.90
10889;DHT22;5497;51.388;6.780;2023-02-28T01:07:19;-1.00;99.90
10889;DHT22;5497;51.388;6.780;2023-02-28T01:12:15;-1.00;99.90
10889;DHT22;5497;51.388;6.780;2023-02-28T01:14:42;-1.10;99.90
10889;DHT22;5497;51.388;6.780;2023-02-28T01:17:09;-1.10;99.90
10889;DHT22;5497;51.388;6.780;2023-02-28T01:19:36;-1.10;99.90
10889;DHT22;5497;51.388;6.780;2023-02-28T01:22:04;-1.10;99.90
10889;DHT22;5497;51.388;6.780;2023-02-28T01:24:32;-1.10;99.90
10889;DHT22;5497;51.388;6.780;2023-02-28T01:27:00;-1.10;99.90
10889;DHT22;5497;51.388;6.780;2023-02-28T01:29:27;-1.10;99.90
10889;DHT22;5497;51.388;6.780;2023-02-28T01:31:54;-1.10;99.90
10889;DHT22;5497;51.388;6.780;2023-02-28T01:34:22;-1.00;99.90
10889;DHT22;5497;51.388;6.780;2023-02-28T01:36:50;-1.00;99.90
10889;DHT22;5497;51.388;6.780;2023-02-28T01:39:18;-1.00;99.90
10889;DHT22;5497;51.388;6.780;2023-02-28T01:41:45;-1.00;99.90
10889;DHT22;5497;51.388;6.780;2023-02-28T01:47:18;-1.00;99.90
10889;DHT22;5497;51.388;6.780;2023-02-28T01:49:45;-1.00;99.90
10889;DHT22;5497;51.388;6.780;2023-02-28T01:52:12;-1.00;99.90
10889;DHT22;5497;51.388;6.780;2023-02-28T01:54:47;-1.00;99.90
10889;DHT22;5497;51.388;6.780;2023-02-28T01:57:20;-1.00;99.90
10889;DHT22;5497;51.388;6.780;2023-02-28T01:59:52;-1.00;99.90
10889;DHT22;5497;51.388;6.780;2023-02-28T02:02:23;-1.00;99.90
10889;DHT22;5497;51.388;6.780;2023-02-28T02:04:54;-1.00;99.90
10889;DHT22;5497;51.388;6.780;2023-02-28T02:07:22;-1.10;99.90
10889;DHT22;5497;51.388;6.780;2023-02-28T02:09:50;-1.10;99.90
10889;DHT22;5497;51.388;6.780;2023-02-28T02:12:24;-0.60;99.90
10889;DHT22;5497;51.388;6.780;2023-02-28T02:15:00;-1.10;99.90
10889;DHT22;5497;51.388;6.780;2023-02-28T02:17:34;-1.10;99.90
10889;DHT22;5497;51.388;6.780;2023-02-28T02:23:39;-1.20;99.90
10889;DHT22;5497;51.388;6.780;2023-02-28T02:26:25;-1.30;99.90
10889;DHT22;5497;51.388;6.780;2023-02-28T02:32:19;-1.30;99.90
10889;DHT22;5497;51.388;6.780;2023-02-28T02:34:58;-1.40;99.90
10889;DHT22;5497;51.388;6.780;2023-02-28T02:37:31;-1.40;99.90
10889;DHT22;5497;51.388;6.780;2023-02-28T02:40:08;-1.40;99.90
10889;DHT22;5497;51.388;6.780;2023-02-28T02:42:41;-1.50;99.90
10889;DHT22;5497;51.388;6.780;2023-02-28T02:45:14;-1.50;99.90
10889;DHT22;5497;51.388;6.780;2023-02-28T02:47:44;-1.50;99.90
10889;DHT22;5497;51.388;6.780;2023-02-28T02:50:17;-1.60;99.90
10889;DHT22;5497;51.388;6.780;2023-02-28T02:52:49;-1.50;99.90
10889;DHT22;5497;51.388;6.780;2023-02-28T02:55:18;-1.60;99.90
10889;DHT22;5497;51.388;6.780;2023-02-28T02:57:49;-1.60;99.90
10889;DHT22;5497;51.388;6.780;2023-02-28T03:00:21;-1.60;99.90
10889;DHT22;5497;51.388;6.780;2023-02-28T03:02:52;-1.60;99.90
10889;DHT22;5497;51.388;6.780;2023-02-28T03:05:25;-1.60;99.90
10889;DHT22;5497;51.388;6.780;2023-02-28T03:07:52;-1.70;99.90
10889;DHT22;5497;51.388;6.780;2023-02-28T03:10:32;-1.70;99.90
10889;DHT22;5497;51.388;6.780;2023-02-28T03:13:30;-1.80;99.90
10889;DHT22;5497;51.388;6.780;2023-02-28T03:18:57;-1.80;99.90
10889;DHT22;5497;51.388;6.780;2023-02-28T03:21:37;-1.80;99.90
10889;DHT22;5497;51.388;6.780;2023-02-28T03:24:09;-1.80;99.90
10889;DHT22;5497;51.388;6.780;2023-02-28T03:26:40;-1.80;99.90
10889;DHT22;5497;51.388;6.780;2023-02-28T03:29:13;-1.90;99.90
10889;DHT22;5497;51.388;6.780;2023-02-28T03:31:46;-1.90;99.90
10889;DHT22;5497;51.388;6.780;2023-02-28T03:34:19;-2.00;99.90
10889;DHT22;5497;51.388;6.780;2023-02-28T03:36:52;-2.00;99.90
10889;DHT22;5497;51.388;6.780;2023-02-28T03:39:28;-2.00;99.90
10889;DHT22;5497;51.388;6.780;2023-02-28T03:41:58;-2.00;99.90
10889;DHT22;5497;51.388;6.780;2023-02-28T03:44:29;-2.00;99.90
10889;DHT22;5497;51.388;6.780;2023-02-28T03:47:00;-2.00;99.90
10889;DHT22;5497;51.388;6.780;2023-02-28T03:49:32;-2.00;99.90
10889;DHT22;5497;51.388;6.780;2023-02-28T03:52:03;-2.00;99.90
10889;DHT22;5497;51.388;6.780;2023-02-28T03:54:41;-2.10;99.90
10889;DHT22;5497;51.388;6.780;2023-02-28T03:57:13;-2.10;99.90
10889;DHT22;5497;51.388;6.780;2023-02-28T03:59:45;-2.10;99.90
10889;DHT22;5497;51.388;6.780;2023-02-28T04:02:14;-1.70;99.90
10889;DHT22;5497;51.388;6.780;2023-02-28T04:04:41;-2.10;99.90
10889;DHT22;5497;51.388;6.780;2023-02-28T04:07:12;-2.00;99.90
10889;DHT22;5497;51.388;6.780;2023-02-28T04:09:39;-2.00;99.90
10889;DHT22;5497;51.388;6.780;2023-02-28T04:12:06;-2.00;99.90
10889;DHT22;5497;51.388;6.780;2023-02-28T04:14:33;-2.00;99.90
10889;DHT22;5497;51.388;6.780;2023-02-28T04:17:00;-2.00;99.90
10889;DHT22;5497;51.388;6.780;2023-02-28T04:19:27;-2.10;99.90
10889;DHT22;5497;51.388;6.780;2023-02-28T04:21:54;-2.10;99.90
10889;DHT22;5497;51.388;6.780;2023-02-28T04:24:26;-2.10;99.90
10889;DHT22;5497;51.388;6.780;2023-02-28T04:26:54;-2.10;99.90
10889;DHT22;5497;51.388;6.780;2023-02-28T04:29:23;-2.10;99.90
10889;DHT22;5497;51.388;6.780;2023-02-28T04:31:50;-2.00;99.90
10889;DHT22;5497;51.388;6.780;2023-02-28T04:34:19;-2.00;99.90
10889;DHT22;5497;51.388;6.780;2023-02-28T04:36:46;-2.00;99.90
10889;DHT22;5497;51.388;6.780;2023-02-28T04:39:15;-2.10;99.90
10889;DHT22;5497;51.388;6.780;2023-02-28T04:41:45;-2.10;99.90
10889;DHT22;5497;51.388;6.780;2023-02-28T04:44:12;-2.10;99.90
10889;DHT22;5497;51.388;6.780;2023-02-28T04:46:40;-2.20;99.90
10889;DHT22;5497;51.388;6.780;2023-02-28T04:49:07;-2.20;99.90
10889;DHT22;5497;51.388;6.780;2023-02-28T04:51:35;-2.20;99.90
10889;DHT22;5497;51.388;6.780;2023-02-28T04:54:02;-2.30;99.90
10889;DHT22;5497;51.388;6.780;2023-02-28T04:56:28;-2.30;99.90
10889;DHT22;5497;51.388;6.780;2023-02-28T04:58:57;-2.30;99.90
10889;DHT22;5497;51.388;6.780;2023-02-28T05:01:25;-2.30;99.90
10889;DHT22;5497;51.388;6.780;2023-02-28T05:03:53;-2.40;99.90
10889;DHT22;5497;51.388;6.780;2023-02-28T05:06:22;-2.40;99.90
10889;DHT22;5497;51.388;6.780;2023-02-28T05:08:50;-2.30;99.90
10889;DHT22;5497;51.388;6.780;2023-02-28T05:11:18;-2.30;99.90
10889;DHT22;5497;51.388;6.780;2023-02-28T05:13:46;-2.30;99.90
10889;DHT22;5497;51.388;6.780;2023-02-28T05:16:15;-2.30;99.90
10889;DHT22;5497;51.388;6.780;2023-02-28T05:18:42;-2.30;99.90
10889;DHT22;5497;51.388;6.780;2023-02-28T05:21:26;-2.30;99.90
10889;DHT22;5497;51.388;6.780;2023-02-28T05:23:54;-2.30;99.90
10889;DHT22;5497;51.388;6.780;2023-02-28T05:26:21;-2.30;99.90
10889;DHT22;5497;51.388;6.780;2023-02-28T05:28:48;-2.30;99.90
10889;DHT22;5497;51.388;6.780;2023-02-28T05:31:17;-2.30;99.90
10889;DHT22;5497;51.388;6.780;2023-02-28T05:33:44;-2.30;99.90
10889;DHT22;5497;51.388;6.780;2023-02-28T05:36:11;-2.30;99.90
10889;DHT22;5497;51.388;6.780;2023-02-28T05:38:38;-2.20;99.90
10889;DHT22;5497;51.388;6.780;2023-02-28T05:41:06;-2.20;99.90
10889;DHT22;5497;51.388;6.780;2023-02-28T05:43:33;-2.20;99.90
10889;DHT22;5497;51.388;6.780;2023-02-28T05:46:02;-2.20;99.90
10889;DHT22;5497;51.388;6.780;2023-02-28T05:48:31;-2.20;99.90
10889;DHT22;5497;51.388;6.780;2023-02-28T05:50:58;-2.20;99.90
10889;DHT22;5497;51.388;6.780;2023-02-28T05:53:25;-2.20;99.90
10889;DHT22;5497;51.388;6.780;2023-02-28T05:55:53;-2.20;99.90
10889;DHT22;5497;51.388;6.780;2023-02-28T05:58:20;-2.20;99.90
10889;DHT22;5497;51.388;6.780;2023-02-28T06:00:47;-2.20;99.90
10889;DHT22;5497;51.388;6.780;2023-02-28T06:03:14;-2.20;99.90
10889;DHT22;5497;51.388;6.780;2023-02-28T06:05:43;-2.10;99.90
10889;DHT22;5497;51.388;6.780;2023-02-28T06:08:10;-2.10;99.90
10889;DHT22;5497;51.388;6.780;2023-02-28T06:10:38;-2.10;99.90
10889;DHT22;5497;51.388;6.780;2023-02-28T06:13:06;-2.10;99.90
10889;DHT22;5497;51.388;6.780;2023-02-28T06:15:33;-2.10;99.90
10889;DHT22;5497;51.388;6.780;2023-02-28T06:18:00;-2.20;99.90
10889;DHT22;5497;51.388;6.780;2023-02-28T06:20:28;-2.10;99.90
10889;DHT22;5497;51.388;6.780;2023-02-28T06:22:56;-2.10;99.90
10889;DHT22;5497;51.388;6.780;2023-02-28T06:25:24;-2.10;99.90
10889;DHT22;5497;51.388;6.780;2023-02-28T06:27:51;-2.00;99.90
10889;DHT22;5497;51.388;6.780;2023-02-28T06:30:19;-2.00;99.90
10889;DHT22;5497;51.388;6.780;2023-02-28T06:32:52;-1.90;99.90
10889;DHT22;5497;51.388;6.780;2023-02-28T06:35:19;-1.90;99.90
10889;DHT22;5497;51.388;6.780;2023-02-28T06:37:47;-1.90;99.90
10889;DHT22;5497;51.388;6.780;2023-02-28T06:40:15;-1.80;99.90
10889;DHT22;5497;51.388;6.780;2023-02-28T06:42:42;-1.80;99.90
10889;DHT22;5497;51.388;6.780;2023-02-28T06:45:10;-1.80;99.90
10889;DHT22;5497;51.388;6.780;2023-02-28T06:47:39;-1.70;99.90
10889;DHT22;5497;51.388;6.780;2023-02-28T06:50:07;-1.60;99.90
10889;DHT22;5497;51.388;6.780;2023-02-28T06:52:34;-1.50;99.90
10889;DHT22;5497;51.388;6.780;2023-02-28T06:55:03;-1.10;99.90
10889;DHT22;5497;51.388;6.780;2023-02-28T06:57:33;-0.20;99.90
10889;DHT22;5497;51.388;6.780;2023-02-28T07:00:03;0.50;99.90
10889;DHT22;5497;51.388;6.780;2023-02-28T07:02:33;1.30;99.90
10889;DHT22;5497;51.388;6.780;2023-02-28T07:05:00;1.80;99.90
10889;DHT22;5497;51.388;6.780;2023-02-28T07:07:28;2.30;99.90
10889;DHT22;5497;51.388;6.780;2023-02-28T07:09:55;2.60;99.90
10889;DHT22;5497;51.388;6.780;2023-02-28T07:12:22;2.90;99.90
10889;DHT22;5497;51.388;6.780;2023-02-28T07:14:50;3.40;99.90
10889;DHT22;5497;51.388;6.780;2023-02-28T07:17:17;3.50;99.90
10889;DHT22;5497;51.388;6.780;2023-02-28T07:19:44;4.10;99.90
10889;DHT22;5497;51.388;6.780;2023-02-28T07:22:11;4.80;99.90
10889;DHT22;5497;51.388;6.780;2023-02-28T07:24:38;5.40;99.90
10889;DHT22;5497;51.388;6.780;2023-02-28T07:27:05;6.00;99.90
10889;DHT22;5497;51.388;6.780;2023-02-28T07:29:32;6.60;99.90
10889;DHT22;5497;51.388;6.780;2023-02-28T07:32:00;7.10;99.90
10889;DHT22;5497;51.388;6.780;2023-02-28T07:34:27;7.40;99.90
10889;DHT22;5497;51.388;6.780;2023-02-28T07:36:54;7.50;99.90
10889;DHT22;5497;51.388;6.780;2023-02-28T07:39:22;7.70;99.90
10889;DHT22;5497;51.388;6.780;2023-02-28T07:41:49;7.80;99.90
10889;DHT22;5497;51.388;6.780;2023-02-28T07:44:16;7.90;99.90
10889;DHT22;5497;51.388;6.780;2023-02-28T07:46:43;7.90;99.90
10889;DHT22;5497;51.388;6.780;2023-02-28T07:49:11;7.90;99.90
10889;DHT22;5497;51.388;6.780;2023-02-28T07:51:38;8.00;99.90
10889;DHT22;5497;51.388;6.780;2023-02-28T07:54:05;8.00;99.90
10889;DHT22;5497;51.388;6.780;2023-02-28T07:56:32;8.00;99.90
10889;DHT22;5497;51.388;6.780;2023-02-28T07:58:59;8.00;99.90
10889;DHT22;5497;51.388;6.780;2023-02-28T08:01:27;8.00;99.90
10889;DHT22;5497;51.388;6.780;2023-02-28T08:03:54;8.10;99.90
10889;DHT22;5497;51.388;6.780;2023-02-28T08:06:25;8.10;99.90
10889;DHT22;5497;51.388;6.780;2023-02-28T08:08:53;8.10;99.90
10889;DHT22;5497;51.388;6.780;2023-02-28T08:11:21;7.90;99.90
10889;DHT22;5497;51.388;6.780;2023-02-28T08:13:48;8.00;99.90
10889;DHT22;5497;51.388;6.780;2023-02-28T08:16:16;7.60;99.90
10889;DHT22;5497;51.388;6.780;2023-02-28T08:18:47;7.60;99.90
10889;DHT22;5497;51.388;6.780;2023-02-28T08:21:16;7.60;99.90
10889;DHT22;5497;51.388;6.780;2023-02-28T08:23:46;7.90;99.90
10889;DHT22;5497;51.388;6.780;2023-02-28T08:26:13;7.90;99.90
10889;DHT22;5497;51.388;6.780;2023-02-28T08:28:40;7.90;99.90
10889;DHT22;5497;51.388;6.780;2023-02-28T08:31:08;7.90;99.90
10889;DHT22;5497;51.388;6.780;2023-02-28T08:33:36;8.00;99.90
10889;DHT22;5497;51.388;6.780;2023-02-28T08:36:05;8.10;99.90
10889;DHT22;5497;51.388;6.780;2023-02-28T08:38:33;8.00;99.90
10889;DHT22;5497;51.388;6.780;2023-02-28T08:41:03;7.90;99.90
10889;DHT22;5497;51.388;6.780;2023-02-28T08:43:31;7.90;99.90
10889;DHT22;5497;51.388;6.780;2023-02-28T08:45:58;7.90;99.90
10889;DHT22;5497;51.388;6.780;2023-02-28T08:48:27;7.70;99.90
10889;DHT22;5497;51.388;6.780;2023-02-28T08:50:55;7.50;99.90
10889;DHT22;5497;51.388;6.780;2023-02-28T08:53:23;7.40;99.90
10889;DHT22;5497;51.388;6.780;2023-02-28T08:55:58;7.20;99.90
10889;DHT22;5497;51.388;6.780;2023-02-28T08:58:27;6.80;99.90
10889;DHT22;5497;51.388;6.780;2023-02-28T09:00:54;6.80;99.90
10889;DHT22;5497;51.388;6.780;2023-02-28T09:03:24;6.70;99.90
10889;DHT22;5497;51.388;6.780;2023-02-28T09:05:54;6.90;99.90
10889;DHT22;5497;51.388;6.780;2023-02-28T09:08:28;7.20;99.90
10889;DHT22;5497;51.388;6.780;2023-02-28T09:11:00;7.30;99.90
10889;DHT22;5497;51.388;6.780;2023-02-28T09:13:33;7.50;99.90
10889;DHT22;5497;51.388;6.780;2023-02-28T09:16:13;7.50;99.90
10889;DHT22;5497;51.388;6.780;2023-02-28T09:18:47;7.30;99.90
10889;DHT22;5497;51.388;6.780;2023-02-28T09:21:19;5.50;99.90
10889;DHT22;5497;51.388;6.780;2023-02-28T09:23:48;6.90;99.90
10889;DHT22;5497;51.388;6.780;2023-02-28T09:26:17;6.70;99.90
10889;DHT22;5497;51.388;6.780;2023-02-28T09:28:46;6.30;99.90
10889;DHT22;5497;51.388;6.780;2023-02-28T09:31:15;6.20;99.90
10889;DHT22;5497;51.388;6.780;2023-02-28T09:33:42;5.70;99.90
10889;DHT22;5497;51.388;6.780;2023-02-28T09:36:09;5.70;99.90
10889;DHT22;5497;51.388;6.780;2023-02-28T09:38:37;5.80;99.90
10889;DHT22;5497;51.388;6.780;2023-02-28T09:41:12;5.60;99.90
10889;DHT22;5497;51.388;6.780;2023-02-28T09:43:44;5.30;99.90
10889;DHT22;5497;51.388;6.780;2023-02-28T09:46:27;5.30;99.90
10889;DHT22;5497;51.388;6.780;2023-02-28T09:48:55;5.20;99.90
10889;DHT22;5497;51.388;6.780;2023-02-28T09:51:33;5.20;99.90
10889;DHT22;5497;51.388;6.780;2023-02-28T09:56:34;5.20;99.90
10889;DHT22;5497;51.388;6.780;2023-02-28T09:59:05;5.10;99.90
10889;DHT22;5497;51.388;6.780;2023-02-28T10:01:43;5.60;99.90
10889;DHT22;5497;51.388;6.780;2023-02-28T10:04:24;5.10;99.90
10889;DHT22;5497;51.388;6.780;2023-02-28T10:06:53;5.10;99.90
10889;DHT22;5497;51.388;6.780;2023-02-28T10:09:23;5.20;99.90
10889;DHT22;5497;51.388;6.780;2023-02-28T10:11:52;5.20;99.90
10889;DHT22;5497;51.388;6.780;2023-02-28T10:14:23;5.30;99.90
10889;DHT22;5497;51.388;6.780;2023-02-28T10:16:54;5.50;99.90
10889;DHT22;5497;51.388;6.780;2023-02-28T10:19:25;5.50;99.90
10889;DHT22;5497;51.388;6.780;2023-02-28T10:22:00;5.60;99.90
10889;DHT22;5497;51.388;6.780;2023-02-28T10:24:30;5.70;99.90
10889;DHT22;5497;51.388;6.780;2023-02-28T10:27:12;5.70;99.90
10889;DHT22;5497;51.388;6.780;2023-02-28T10:29:43;5.80;99.90
10889;DHT22;5497;51.388;6.780;2023-02-28T10:32:15;5.90;99.90
10889;DHT22;5497;51.388;6.780;2023-02-28T10:34:43;6.00;99.90
10889;DHT22;5497;51.388;6.780;2023-02-28T10:37:11;6.30;99.90
10889;DHT22;5497;51.388;6.780;2023-02-28T10:39:42;6.60;99.90
10889;DHT22;5497;51.388;6.780;2023-02-28T10:42:22;6.90;99.90
10889;DHT22;5497;51.388;6.780;2023-02-28T10:45:05;7.20;99.90
10889;DHT22;5497;51.388;6.780;2023-02-28T10:47:35;7.20;99.90
10889;DHT22;5497;51.388;6.780;2023-02-28T10:50:05;7.20;99.90
10889;DHT22;5497;51.388;6.780;2023-02-28T10:52:37;7.50;99.90
10889;DHT22;5497;51.388;6.780;2023-02-28T10:55:20;7.70;99.90
10889;DHT22;5497;51.388;6.780;2023-02-28T10:57:47;7.60;99.90
10889;DHT22;5497;51.388;6.780;2023-02-28T11:00:18;7.40;99.90
10889;DHT22;5497;51.388;6.780;2023-02-28T11:02:47;7.40;99.90
10889;DHT22;5497;51.388;6.780;2023-02-28T11:05:29;7.30;99.90
10889;DHT22;5497;51.388;6.780;2023-02-28T11:08:00;7.10;99.90
10889;DHT22;5497;51.388;6.780;2023-02-28T11:10:31;7.20;99.90
10889;DHT22;5497;51.388;6.780;2023-02-28T11:13:04;7.70;99.90
10889;DHT22;5497;51.388;6.780;2023-02-28T11:15:33;7.80;99.90
10889;DHT22;5497;51.388;6.780;2023-02-28T11:18:06;7.60;99.90
10889;DHT22;5497;51.388;6.780;2023-02-28T11:20:42;7.60;99.90
10889;DHT22;5497;51.388;6.780;2023-02-28T11:23:16;7.60;99.90
10889;DHT22;5497;51.388;6.780;2023-02-28T11:25:49;7.60;99.90
10889;DHT22;5497;51.388;6.780;2023-02-28T11:28:29;7.80;99.90
10889;DHT22;5497;51.388;6.780;2023-02-28T11:31:16;8.00;99.90
10889;DHT22;5497;51.388;6.780;2023-02-28T11:33:47;7.80;99.90
10889;DHT22;5497;51.388;6.780;2023-02-28T11:36:19;7.80;99.90
10889;DHT22;5497;51.388;6.780;2023-02-28T11:38:47;7.80;99.90
10889;DHT22;5497;51.388;6.780;2023-02-28T11:41:39;7.90;99.90
10889;DHT22;5497;51.388;6.780;2023-02-28T11:44:28;7.80;99.70
10889;DHT22;5497;51.388;6.780;2023-02-28T11:47:00;7.80;99.90
10889;DHT22;5497;51.388;6.780;2023-02-28T11:49:37;7.20;99.00
10889;DHT22;5497;51.388;6.780;2023-02-28T11:52:19;6.90;99.30
10889;DHT22;5497;51.388;6.780;2023-02-28T11:55:02;6.50;99.50
10889;DHT22;5497;51.388;6.780;2023-02-28T11:57:38;6.40;99.30
10889;DHT22;5497;51.388;6.780;2023-02-28T12:00:26;6.20;99.90
10889;DHT22;5497;51.388;6.780;2023-02-28T12:03:06;6.10;99.90
10889;DHT22;5497;51.388;6.780;2023-02-28T12:05:45;5.80;99.90
10889;DHT22;5497;51.388;6.780;2023-02-28T12:08:23;5.80;99.90
10889;DHT22;5497;51.388;6.780;2023-02-28T12:11:00;5.60;99.90
10889;DHT22;5497;51.388;6.780;2023-02-28T12:13:37;7.20;99.90
10889;DHT22;5497;51.388;6.780;2023-02-28T12:16:29;5.80;99.90
10889;DHT22;5497;51.388;6.780;2023-02-28T12:19:17;6.20;99.90
10889;DHT22;5497;51.388;6.780;2023-02-28T12:22:03;6.50;99.90
10889;DHT22;5497;51.388;6.780;2023-02-28T12:25:08;7.10;99.90
10889;DHT22;5497;51.388;6.780;2023-02-28T12:27:43;7.20;99.90
10889;DHT22;5497;51.388;6.780;2023-02-28T12:30:16;9.40;99.90
10889;DHT22;5497;51.388;6.780;2023-02-28T12:32:47;7.70;99.90
10889;DHT22;5497;51.388;6.780;2023-02-28T12:35:19;7.70;99.90
10889;DHT22;5497;51.388;6.780;2023-02-28T12:37:59;7.80;99.80
10889;DHT22;5497;51.388;6.780;2023-02-28T12:40:43;7.60;99.60
10889;DHT22;5497;51.388;6.780;2023-02-28T12:43:13;7.50;99.90
10889;DHT22;5497;51.388;6.780;2023-02-28T12:45:44;7.50;99.50
10889;DHT22;5497;51.388;6.780;2023-02-28T12:48:21;7.60;99.50
10889;DHT22;5497;51.388;6.780;2023-02-28T12:50:50;7.70;99.40
10889;DHT22;5497;51.388;6.780;2023-02-28T12:53:25;7.70;99.80
10889;DHT22;5497;51.388;6.780;2023-02-28T12:56:02;7.70;99.70
10889;DHT22;5497;51.388;6.780;2023-02-28T12:58:37;7.70;99.10
10889;DHT22;5497;51.388;6.780;2023-02-28T13:04:33;7.80;99.60
10889;DHT22;5497;51.388;6.780;2023-02-28T13:10:13;8.20;99.90
10889;DHT22;5497;51.388;6.780;2023-02-28T13:12:48;8.20;99.70
10889;DHT22;5497;51.388;6.780;2023-02-28T13:15:18;8.20;99.80
10889;DHT22;5497;51.388;6.780;2023-02-28T13:17:50;8.20;99.70
10889;DHT22;5497;51.388;6.780;2023-02-28T13:20:19;8.00;99.00
10889;DHT22;5497;51.388;6.780;2023-02-28T13:22:47;7.90;99.20
10889;DHT22;5497;51.388;6.780;2023-02-28T13:34:39;7.90;99.40
10889;DHT22;5497;51.388;6.780;2023-02-28T13:37:32;8.00;99.40
10889;DHT22;5497;51.388;6.780;2023-02-28T13:42:49;7.70;98.00
10889;DHT22;5497;51.388;6.780;2023-02-28T13:45:25;7.80;98.30
10889;DHT22;5497;51.388;6.780;2023-02-28T13:47:56;7.70;98.30
10889;DHT22;5497;51.388;6.780;2023-02-28T13:50:33;7.70;98.80
10889;DHT22;5497;51.388;6.780;2023-02-28T13:53:36;7.70;99.10
10889;DHT22;5497;51.388;6.780;2023-02-28T13:56:10;7.70;98.70
10889;DHT22;5497;51.388;6.780;2023-02-28T13:58:53;7.70;98.80
10889;DHT22;5497;51.388;6.780;2023-02-28T14:01:48;7.70;99.10
10889;DHT22;5497;51.388;6.780;2023-02-28T14:04:53;7.60;98.20
10889;DHT22;5497;51.388;6.780;2023-02-28T14:07:25;7.60;98.80
10889;DHT22;5497;51.388;6.780;2023-02-28T14:10:00;7.60;98.50
10889;DHT22;5497;51.388;6.780;2023-02-28T14:13:03;7.50;98.60
10889;DHT22;5497;51.388;6.780;2023-02-28T14:15:44;7.50;99.20
10889;DHT22;5497;51.388;6.780;2023-02-28T14:18:25;7.50;99.30
10889;DHT22;5497;51.388;6.780;2023-02-28T14:20:57;7.50;99.40
10889;DHT22;5497;51.388;6.780;2023-02-28T14:23:35;7.60;99.30
10889;DHT22;5497;51.388;6.780;2023-02-28T14:26:18;7.60;98.90
10889;DHT22;5497;51.388;6.780;2023-02-28T14:29:07;7.60;99.10
10889;DHT22;5497;51.388;6.780;2023-02-28T14:31:44;7.50;98.60
10889;DHT22;5497;51.388;6.780;2023-02-28T14:34:26;7.30;98.90
10889;DHT22;5497;51.388;6.780;2023-02-28T14:37:02;7.40;99.70
10889;DHT22;5497;51.388;6.780;2023-02-28T14:39:30;7.40;99.80
10889;DHT22;5497;51.388;6.780;2023-02-28T14:41:58;7.50;99.90
10889;DHT22;5497;51.388;6.780;2023-02-28T14:44:28;7.40;99.80
10889;DHT22;5497;51.388;6.780;2023-02-28T14:46:57;7.30;99.90
10889;DHT22;5497;51.388;6.780;2023-02-28T14:49:27;7.30;99.90
10889;DHT22;5497;51.388;6.780;2023-02-28T14:52:26;7.40;99.90
10889;DHT22;5497;51.388;6.780;2023-02-28T14:54:57;7.40;99.90
10889;DHT22;5497;51.388;6.780;2023-02-28T14:57:29;7.30;99.90
10889;DHT22;5497;51.388;6.780;2023-02-28T15:00:02;7.10;99.90
10889;DHT22;5497;51.388;6.780;2023-02-28T15:02:36;7.00;99.90
10889;DHT22;5497;51.388;6.780;2023-02-28T15:05:20;6.90;99.90
10889;DHT22;5497;51.388;6.780;2023-02-28T15:08:01;6.90;99.90
10889;DHT22;5497;51.388;6.780;2023-02-28T15:10:29;7.00;99.90
10889;DHT22;5497;51.388;6.780;2023-02-28T15:12:57;6.90;99.90
10889;DHT22;5497;51.388;6.780;2023-02-28T15:15:29;6.80;99.90
10889;DHT22;5497;51.388;6.780;2023-02-28T15:18:03;6.80;99.90
10889;DHT22;5497;51.388;6.780;2023-02-28T15:20:31;6.70;99.90
10889;DHT22;5497;51.388;6.780;2023-02-28T15:23:00;6.30;99.90
10889;DHT22;5497;51.388;6.780;2023-02-28T15:25:28;6.60;99.90
10889;DHT22;5497;51.388;6.780;2023-02-28T15:27:56;6.60;99.90
10889;DHT22;5497;51.388;6.780;2023-02-28T15:30:25;6.60;99.90
10889;DHT22;5497;51.388;6.780;2023-02-28T15:33:05;6.60;99.90
10889;DHT22;5497;51.388;6.780;2023-02-28T15:35:34;6.50;99.90
10889;DHT22;5497;51.388;6.780;2023-02-28T15:38:12;6.50;99.90
10889;DHT22;5497;51.388;6.780;2023-02-28T15:40:42;6.50;99.90
10889;DHT22;5497;51.388;6.780;2023-02-28T15:43:14;6.50;99.90
10889;DHT22;5497;51.388;6.780;2023-02-28T15:45:45;6.60;99.90
10889;DHT22;5497;51.388;6.780;2023-02-28T15:48:16;6.60;99.90
10889;DHT22;5497;51.388;6.780;2023-02-28T15:50:44;6.50;99.90
10889;DHT22;5497;51.388;6.780;2023-02-28T15:53:16;6.30;99.90
10889;DHT22;5497;51.388;6.780;2023-02-28T15:55:44;6.30;99.90
10889;DHT22;5497;51.388;6.780;2023-02-28T15:58:12;6.30;99.90
10889;DHT22;5497;51.388;6.780;2023-02-28T16:00:43;6.20;99.90
10889;DHT22;5497;51.388;6.780;2023-02-28T16:03:25;6.10;99.90
10889;DHT22;5497;51.388;6.780;2023-02-28T16:06:08;6.10;99.90
10889;DHT22;5497;51.388;6.780;2023-02-28T16:08:37;6.00;99.90
10889;DHT22;5497;51.388;6.780;2023-02-28T16:11:04;6.00;99.90
10889;DHT22;5497;51.388;6.780;2023-02-28T16:13:31;5.90;99.90
10889;DHT22;5497;51.388;6.780;2023-02-28T16:15:58;5.90;99.90
10889;DHT22;5497;51.388;6.780;2023-02-28T16:18:27;5.90;99.90
10889;DHT22;5497;51.388;6.780;2023-02-28T16:20:54;5.80;99.90
10889;DHT22;5497;51.388;6.780;2023-02-28T16:23:21;5.80;99.90
10889;DHT22;5497;51.388;6.780;2023-02-28T16:25:49;5.80;99.90
10889;DHT22;5497;51.388;6.780;2023-02-28T16:28:19;5.70;99.90
10889;DHT22;5497;51.388;6.780;2023-02-28T16:30:47;5.70;99.90
10889;DHT22;5497;51.388;6.780;2023-02-28T16:33:14;5.60;99.90
10889;DHT22;5497;51.388;6.780;2023-02-28T16:35:41;5.60;99.90
10889;DHT22;5497;51.388;6.780;2023-02-28T16:38:09;5.60;99.90
10889;DHT22;5497;51.388;6.780;2023-02-28T16:40:36;5.40;99.90
10889;DHT22;5497;51.388;6.780;2023-02-28T16:43:08;5.40;99.90
10889;DHT22;5497;51.388;6.780;2023-02-28T16:45:36;5.30;99.90
10889;DHT22;5497;51.388;6.780;2023-02-28T16:48:03;5.20;99.90
10889;DHT22;5497;51.388;6.780;2023-02-28T16:50:30;5.20;99.90
10889;DHT22;5497;51.388;6.780;2023-02-28T16:52:58;5.10;99.90
10889;DHT22;5497;51.388;6.780;2023-02-28T16:55:26;5.10;99.90
10889;DHT22;5497;51.388;6.780;2023-02-28T16:57:55;5.00;99.90
10889;DHT22;5497;51.388;6.780;2023-02-28T17:00:25;4.90;99.90
10889;DHT22;5497;51.388;6.780;2023-02-28T17:02:53;4.80;99.90
10889;DHT22;5497;51.388;6.780;2023-02-28T17:05:21;2.50;99.90